createdAt,value
2022-10-22T00:00:09.566Z,10.6
2022-10-22T00:03:10.041Z,10.6
2022-10-22T00:06:09.485Z,10.7
2022-10-22T00:09:10.231Z,10.6
2022-10-22T00:12:09.473Z,10.6
2022-10-22T00:15:09.601Z,10.6
2022-10-22T00:18:09.524Z,10.6
2022-10-22T00:21:09.598Z,10.6
2022-10-22T00:24:09.600Z,10.6
2022-10-22T00:27:09.570Z,10.7
2022-10-22T00:30:09.558Z,10.8
2022-10-22T00:33:09.576Z,10.8
2022-10-22T00:36:09.543Z,10.8
2022-10-22T00:39:09.623Z,10.8
2022-10-22T00:42:09.536Z,10.7
2022-10-22T00:45:09.662Z,10.6
2022-10-22T00:48:09.577Z,10.6
2022-10-22T00:51:09.484Z,10.7
2022-10-22T00:54:09.531Z,11
2022-10-22T00:57:09.699Z,11.5
2022-10-22T01:00:09.684Z,11.7
2022-10-22T01:03:09.683Z,11.7
2022-10-22T01:06:09.805Z,11.5
2022-10-22T01:09:09.943Z,11.4
2022-10-22T01:12:09.546Z,11.4
2022-10-22T01:15:09.569Z,11.3
2022-10-22T01:18:09.703Z,11.4
2022-10-22T01:21:09.509Z,11.3
2022-10-22T01:24:09.567Z,11.2
2022-10-22T01:27:09.513Z,11.2
2022-10-22T01:30:09.561Z,11.2
2022-10-22T01:33:09.572Z,11.2
2022-10-22T01:36:09.506Z,11.1
2022-10-22T01:39:09.548Z,11.1
2022-10-22T01:42:09.530Z,10.9
2022-10-22T01:45:09.543Z,10.9
2022-10-22T01:48:09.503Z,10.9
2022-10-22T01:51:09.534Z,10.8
2022-10-22T01:54:09.533Z,10.8
2022-10-22T01:57:09.565Z,10.8
2022-10-22T02:00:09.526Z,10.7
2022-10-22T02:03:09.550Z,10.6
2022-10-22T02:06:09.663Z,10.6
2022-10-22T02:09:10.071Z,10.6
2022-10-22T02:12:09.737Z,10.6
2022-10-22T02:15:09.714Z,10.6
2022-10-22T02:18:09.470Z,10.6
2022-10-22T02:21:10.716Z,10.6
2022-10-22T02:24:09.531Z,10.6
2022-10-22T02:27:09.496Z,10.7
2022-10-22T02:30:10.102Z,10.6
2022-10-22T02:33:09.484Z,10.7
2022-10-22T02:36:09.448Z,10.6
2022-10-22T02:39:09.789Z,10.6
2022-10-22T02:42:09.471Z,10.5
2022-10-22T02:45:09.705Z,10.5
2022-10-22T02:48:09.722Z,10.4
2022-10-22T02:51:09.506Z,10.4
2022-10-22T02:54:09.589Z,10.3
2022-10-22T02:57:09.646Z,10.3
2022-10-22T03:00:09.504Z,10.3
2022-10-22T03:03:09.566Z,10.2
2022-10-22T03:06:09.554Z,10.2
2022-10-22T03:09:09.907Z,10.2
2022-10-22T03:12:09.541Z,10.1
2022-10-22T03:15:09.520Z,10.2
2022-10-22T03:18:09.523Z,10.1
2022-10-22T03:21:09.545Z,10.1
2022-10-22T03:24:09.485Z,10.1
2022-10-22T03:27:09.599Z,10.1
2022-10-22T03:30:09.510Z,10.1
2022-10-22T03:33:09.567Z,10.1
2022-10-22T03:36:09.632Z,10
2022-10-22T03:39:09.538Z,10
2022-10-22T03:42:09.479Z,9.9
2022-10-22T03:45:09.547Z,9.9
2022-10-22T03:48:09.487Z,9.8
2022-10-22T03:51:09.453Z,9.8
2022-10-22T03:54:09.586Z,9.8
2022-10-22T03:57:09.488Z,9.7
2022-10-22T04:00:09.701Z,9.8
2022-10-22T04:03:09.491Z,9.8
2022-10-22T04:06:09.509Z,9.9
2022-10-22T04:09:09.970Z,10.1
2022-10-22T04:12:09.619Z,10.7
2022-10-22T04:15:09.563Z,10.9
2022-10-22T04:18:09.541Z,11.1
2022-10-22T04:21:09.604Z,11.1
2022-10-22T04:24:09.586Z,11.6
2022-10-22T04:27:09.609Z,12
2022-10-22T04:30:09.565Z,12.3
2022-10-22T04:33:09.600Z,12.5
2022-10-22T04:36:09.538Z,12.5
2022-10-22T04:39:09.495Z,12.2
2022-10-22T04:42:09.528Z,11.9
2022-10-22T04:45:09.625Z,11.8
2022-10-22T04:48:09.487Z,11.6
2022-10-22T04:51:09.517Z,11.6
2022-10-22T04:54:09.514Z,11.4
2022-10-22T04:57:09.504Z,11.3
2022-10-22T05:00:09.547Z,11.2
2022-10-22T05:03:09.467Z,11.1
2022-10-22T05:06:09.985Z,11
2022-10-22T05:09:10.072Z,11
2022-10-22T05:12:09.563Z,11
2022-10-22T05:15:09.519Z,11
2022-10-22T05:18:09.666Z,11.1
2022-10-22T05:21:09.581Z,11
2022-10-22T05:24:09.539Z,10.9
2022-10-22T05:27:09.683Z,10.9
2022-10-22T05:30:09.615Z,10.8
2022-10-22T05:33:09.507Z,10.8
2022-10-22T05:36:09.469Z,10.7
2022-10-22T05:39:09.498Z,10.6
2022-10-22T05:42:09.554Z,10.6
2022-10-22T05:45:09.490Z,10.6
2022-10-22T05:48:09.587Z,10.5
2022-10-22T05:51:09.533Z,10.5
2022-10-22T05:54:09.586Z,10.5
2022-10-22T05:57:09.512Z,10.6
2022-10-22T06:00:14.293Z,10.6
2022-10-22T06:03:09.571Z,10.6
2022-10-22T06:06:09.581Z,10.5
2022-10-22T06:09:09.953Z,10.5
2022-10-22T06:12:09.620Z,10.4
2022-10-22T06:15:09.583Z,10.4
2022-10-22T06:18:09.580Z,10.4
2022-10-22T06:21:09.650Z,10.4
2022-10-22T06:24:09.710Z,10.4
2022-10-22T06:27:09.578Z,10.4
2022-10-22T06:30:09.587Z,10.3
2022-10-22T06:33:09.631Z,10.4
2022-10-22T06:36:16.454Z,10.4
2022-10-22T06:39:09.512Z,10.4
2022-10-22T06:42:09.606Z,10.4
2022-10-22T06:48:09.604Z,10.4
2022-10-22T06:51:09.710Z,10.5
2022-10-22T06:54:09.574Z,10.5
2022-10-22T06:57:09.624Z,10.6
2022-10-22T07:00:09.768Z,10.6
2022-10-22T07:03:09.597Z,10.6
2022-10-22T07:06:09.909Z,10.7
2022-10-22T07:09:10.606Z,10.8
2022-10-22T07:12:09.658Z,10.8
2022-10-22T07:15:09.752Z,11.1
2022-10-22T07:18:09.695Z,11.8
2022-10-22T07:21:10.805Z,12.3
2022-10-22T07:24:09.555Z,12.7
2022-10-22T07:27:15.471Z,12.9
2022-10-22T07:30:09.775Z,13.1
2022-10-22T07:33:09.704Z,13.3
2022-10-22T07:36:09.612Z,13.3
2022-10-22T07:39:09.716Z,13.4
2022-10-22T07:42:09.498Z,13.5
2022-10-22T07:45:09.547Z,13.6
2022-10-22T07:48:09.623Z,13.6
2022-10-22T07:51:09.586Z,13.6
2022-10-22T07:54:09.557Z,13.6
2022-10-22T07:57:09.595Z,13.6
2022-10-22T08:00:09.655Z,13.8
2022-10-22T08:03:09.515Z,13.8
2022-10-22T08:06:09.596Z,13.8
2022-10-22T08:09:09.957Z,13.8
2022-10-22T08:12:09.573Z,13.8
2022-10-22T08:15:09.575Z,13.8
2022-10-22T08:18:09.570Z,13.8
2022-10-22T08:21:09.584Z,13.8
2022-10-22T08:24:09.705Z,13.9
2022-10-22T08:27:09.609Z,14.1
2022-10-22T08:30:09.566Z,14.4
2022-10-22T08:33:09.607Z,14.8
2022-10-22T08:36:09.579Z,15.3
2022-10-22T08:39:09.638Z,15.3
2022-10-22T08:42:09.626Z,15.6
2022-10-22T08:45:09.588Z,15.8
2022-10-22T08:48:09.545Z,16.4
2022-10-22T08:51:09.580Z,16.8
2022-10-22T08:54:09.519Z,17.2
2022-10-22T08:57:09.697Z,17.4
2022-10-22T09:00:09.605Z,17.7
2022-10-22T09:03:09.641Z,18
2022-10-22T09:06:09.559Z,18.3
2022-10-22T09:09:09.915Z,18.7
2022-10-22T09:12:09.572Z,19.1
2022-10-22T09:15:09.555Z,19.3
2022-10-22T09:18:09.639Z,19.4
2022-10-22T09:21:09.601Z,19.6
2022-10-22T09:24:09.613Z,19.9
2022-10-22T09:27:09.485Z,20.1
2022-10-22T09:30:09.662Z,20.5
2022-10-22T09:33:09.570Z,20.4
2022-10-22T09:36:09.671Z,20.8
2022-10-22T09:39:09.982Z,20.8
2022-10-22T09:42:09.677Z,21
2022-10-22T09:45:09.574Z,21.1
2022-10-22T09:48:11.486Z,21.1
2022-10-22T09:51:09.511Z,21.3
2022-10-22T09:54:09.576Z,21.6
2022-10-22T09:57:09.589Z,21.8
2022-10-22T10:00:09.615Z,21.8
2022-10-22T10:03:09.863Z,21.7
2022-10-22T10:06:15.079Z,21.8
2022-10-22T10:09:10.441Z,21.9
2022-10-22T10:12:09.580Z,22.1
2022-10-22T10:15:09.586Z,21.9
2022-10-22T10:18:09.561Z,21.9
2022-10-22T10:21:09.979Z,21.8
2022-10-22T10:24:09.531Z,21.1
2022-10-22T10:27:09.530Z,21.3
2022-10-22T10:30:09.735Z,21.6
2022-10-22T10:33:09.517Z,21.7
2022-10-22T10:36:09.623Z,21.8
2022-10-22T10:39:09.570Z,21.1
2022-10-22T10:42:09.562Z,20.6
2022-10-22T10:45:09.623Z,20.8
2022-10-22T10:48:09.597Z,21.1
2022-10-22T10:51:09.691Z,21.8
2022-10-22T10:54:09.566Z,21.9
2022-10-22T10:57:09.554Z,22.1
2022-10-22T11:00:09.618Z,22.1
2022-10-22T11:03:09.633Z,22
2022-10-22T11:06:09.553Z,21.8
2022-10-22T11:09:10.202Z,21.4
2022-10-22T11:12:09.622Z,21.6
2022-10-22T11:15:09.553Z,21.5
2022-10-22T11:18:09.632Z,21.9
2022-10-22T11:21:09.585Z,21.9
2022-10-22T11:24:09.519Z,21.8
2022-10-22T11:27:09.604Z,21.6
2022-10-22T11:30:09.685Z,21.4
2022-10-22T11:33:09.529Z,21.6
2022-10-22T11:36:09.616Z,21.4
2022-10-22T11:39:09.585Z,21.5
2022-10-22T11:42:09.617Z,21.5
2022-10-22T11:45:09.611Z,21.5
2022-10-22T11:48:09.675Z,21.3
2022-10-22T11:51:09.575Z,20.7
2022-10-22T11:54:09.661Z,20.4
2022-10-22T11:57:09.651Z,20
2022-10-22T12:00:09.808Z,19.8
2022-10-22T12:03:09.786Z,19.6
2022-10-22T12:06:09.506Z,19.3
2022-10-22T12:09:10.205Z,19
2022-10-22T12:12:09.543Z,18.7
2022-10-22T12:15:09.627Z,18.6
2022-10-22T12:18:09.855Z,18.6
2022-10-22T12:21:09.605Z,18.4
2022-10-22T12:24:09.607Z,18.3
2022-10-22T12:27:10.610Z,18.4
2022-10-22T12:30:09.632Z,18.8
2022-10-22T12:33:09.530Z,19.2
2022-10-22T12:36:09.571Z,19.5
2022-10-22T12:39:09.565Z,19.4
2022-10-22T12:42:09.584Z,19.3
2022-10-22T12:45:09.747Z,19.1
2022-10-22T12:48:09.547Z,18.8
2022-10-22T12:51:09.501Z,18.6
2022-10-22T12:54:09.617Z,18.9
2022-10-22T12:57:09.563Z,19.1
2022-10-22T13:03:09.779Z,19.4
2022-10-22T13:06:09.558Z,19.3
2022-10-22T13:09:10.277Z,19.4
2022-10-22T13:12:09.533Z,19.5
2022-10-22T13:15:09.574Z,19.4
2022-10-22T13:18:09.627Z,19.1
2022-10-22T13:21:09.564Z,18.8
2022-10-22T13:24:09.585Z,18.5
2022-10-22T13:27:09.493Z,18.4
2022-10-22T13:30:09.780Z,18.3
2022-10-22T13:33:09.980Z,18.3
2022-10-22T13:36:09.580Z,18.3
2022-10-22T13:39:09.555Z,18.2
2022-10-22T13:42:09.640Z,18.2
2022-10-22T13:45:09.557Z,18.1
2022-10-22T13:48:09.630Z,18.1
2022-10-22T13:51:09.546Z,18.3
2022-10-22T13:54:09.543Z,18.3
2022-10-22T13:57:09.595Z,18.4
2022-10-22T14:00:09.708Z,18.4
2022-10-22T14:03:09.602Z,18.6
2022-10-22T14:06:09.485Z,18.8
2022-10-22T14:09:10.021Z,19.3
2022-10-22T14:12:09.535Z,19.3
2022-10-22T14:15:09.651Z,19.3
2022-10-22T14:18:09.536Z,19.3
2022-10-22T14:21:09.595Z,19.2
2022-10-22T14:24:15.517Z,19.1
2022-10-22T14:27:09.560Z,18.9
2022-10-22T14:30:09.730Z,18.9
2022-10-22T14:33:09.574Z,18.7
2022-10-22T14:36:09.638Z,18.4
2022-10-22T14:39:09.577Z,18.3
2022-10-22T14:42:09.576Z,18.1
2022-10-22T14:45:09.586Z,18
2022-10-22T14:48:09.738Z,17.9
2022-10-22T14:51:09.732Z,17.9
2022-10-22T14:54:09.718Z,17.8
2022-10-22T14:57:09.609Z,17.5
2022-10-22T15:00:09.666Z,16.8
2022-10-22T15:03:13.321Z,16.4
2022-10-22T15:06:09.573Z,16.1
2022-10-22T15:09:10.117Z,16
2022-10-22T15:12:09.647Z,16
2022-10-22T15:15:09.571Z,16
2022-10-22T15:18:09.560Z,16.1
2022-10-22T15:21:09.648Z,16.1
2022-10-22T15:24:09.636Z,16.1
2022-10-22T15:27:09.623Z,16.1
2022-10-22T15:30:09.705Z,16
2022-10-22T15:33:09.600Z,16
2022-10-22T15:36:09.580Z,15.9
2022-10-22T15:39:09.618Z,15.8
2022-10-22T15:42:09.588Z,15.7
2022-10-22T15:45:09.515Z,15.5
2022-10-22T15:48:12.378Z,15.4
2022-10-22T15:51:09.553Z,15.3
2022-10-22T15:54:14.727Z,15.2
2022-10-22T15:57:09.568Z,15.1
2022-10-22T16:00:09.942Z,15.1
2022-10-22T16:03:09.542Z,15
2022-10-22T16:06:09.602Z,15
2022-10-22T16:09:10.090Z,14.9
2022-10-22T16:12:09.770Z,14.7
2022-10-22T16:15:09.548Z,14.6
2022-10-22T16:18:09.502Z,14.5
2022-10-22T16:21:09.480Z,14.4
2022-10-22T16:24:15.406Z,14.3
2022-10-22T16:27:09.691Z,14.2
2022-10-22T16:30:09.517Z,14.1
2022-10-22T16:33:12.517Z,13.9
2022-10-22T16:36:09.711Z,13.9
2022-10-22T16:39:09.533Z,13.8
2022-10-22T16:42:09.497Z,13.8
2022-10-22T16:45:09.969Z,13.7
2022-10-22T16:48:09.520Z,13.7
2022-10-22T16:51:09.603Z,13.6
2022-10-22T16:54:16.570Z,13.5
2022-10-22T16:57:09.483Z,13.4
2022-10-22T17:00:09.609Z,13.3
2022-10-22T17:03:09.556Z,13.3
2022-10-22T17:06:09.513Z,13.3
2022-10-22T17:09:10.129Z,13.3
2022-10-22T17:12:09.615Z,13.2
2022-10-22T17:15:09.515Z,13.3
2022-10-22T17:18:09.627Z,13.3
2022-10-22T17:21:09.629Z,13.4
2022-10-22T17:24:09.578Z,13.6
2022-10-22T17:27:09.705Z,13.7
2022-10-22T17:30:09.583Z,13.8
2022-10-22T17:33:09.549Z,13.8
2022-10-22T17:36:09.504Z,13.8
2022-10-22T17:39:09.607Z,13.8
2022-10-22T17:42:09.512Z,13.8
2022-10-22T17:45:09.548Z,13.8
2022-10-22T17:48:09.614Z,13.8
2022-10-22T17:51:09.511Z,13.8
2022-10-22T17:54:16.580Z,13.8
2022-10-22T17:57:09.526Z,13.8
2022-10-22T18:00:09.695Z,13.8
2022-10-22T18:03:09.503Z,13.8
2022-10-22T18:06:09.548Z,13.8
2022-10-22T18:09:10.072Z,13.8
2022-10-22T18:12:09.506Z,13.8
2022-10-22T18:15:09.530Z,13.8
2022-10-22T18:18:09.491Z,13.7
2022-10-22T18:21:09.476Z,13.6
2022-10-22T18:24:09.472Z,13.6
2022-10-22T18:27:09.541Z,13.6
2022-10-22T18:30:09.481Z,13.6
2022-10-22T18:33:09.508Z,13.5
2022-10-22T18:36:09.534Z,13.4
2022-10-22T18:39:09.611Z,13.4
2022-10-22T18:42:09.797Z,13.4
2022-10-22T18:45:09.519Z,13.4
2022-10-22T18:48:09.546Z,13.4
2022-10-22T18:51:09.581Z,13.4
2022-10-22T18:54:29.630Z,13.5
2022-10-22T18:57:12.102Z,13.6
2022-10-22T19:00:09.559Z,13.6
2022-10-22T19:03:09.512Z,13.7
2022-10-22T19:06:09.489Z,13.8
2022-10-22T19:09:09.983Z,13.8
2022-10-22T19:12:09.530Z,13.8
2022-10-22T19:15:09.548Z,13.9
2022-10-22T19:18:09.604Z,13.9
2022-10-22T19:21:09.608Z,13.9
2022-10-22T19:24:09.554Z,14
2022-10-22T19:27:09.523Z,14
2022-10-22T19:30:09.679Z,14.1
2022-10-22T19:33:09.512Z,14
2022-10-22T19:36:09.485Z,13.9
2022-10-22T19:39:09.523Z,13.9
2022-10-22T19:42:09.583Z,13.9
2022-10-22T19:45:09.601Z,13.9
2022-10-22T19:48:09.521Z,13.9
2022-10-22T19:51:09.474Z,13.8
2022-10-22T19:54:09.618Z,13.8
2022-10-22T19:57:09.502Z,13.8
2022-10-22T20:00:09.577Z,13.7
2022-10-22T20:03:09.541Z,13.6
2022-10-22T20:06:09.464Z,13.5
2022-10-22T20:09:09.778Z,13.4
2022-10-22T20:12:09.463Z,13.2
2022-10-22T20:15:09.536Z,13.1
2022-10-22T20:18:09.570Z,12.9
2022-10-22T20:21:09.500Z,12.7
2022-10-22T20:24:09.511Z,12.5
2022-10-22T20:27:09.507Z,12.4
2022-10-22T20:30:09.836Z,12.4
2022-10-22T20:33:09.593Z,12.5
2022-10-22T20:36:09.459Z,12.6
2022-10-22T20:39:09.499Z,12.6
2022-10-22T20:42:09.521Z,12.6
2022-10-22T20:45:09.743Z,12.5
2022-10-22T20:48:13.229Z,12.5
2022-10-22T20:51:09.693Z,12.4
2022-10-22T20:54:09.528Z,12.4
2022-10-22T20:57:09.635Z,12.4
2022-10-22T21:00:09.603Z,12.4
2022-10-22T21:03:09.584Z,12.6
2022-10-22T21:06:09.573Z,12.6
2022-10-22T21:09:10.064Z,12.6
2022-10-22T21:12:09.550Z,12.6
2022-10-22T21:15:15.103Z,12.7
2022-10-22T21:18:09.475Z,12.6
2022-10-22T21:21:09.536Z,12.6
2022-10-22T21:24:09.632Z,12.4
2022-10-22T21:27:09.659Z,12.4
2022-10-22T21:30:09.498Z,12.3
2022-10-22T21:33:09.741Z,12.2
2022-10-22T21:36:09.597Z,12.2
2022-10-22T21:39:09.442Z,12.1
2022-10-22T21:42:09.524Z,12.1
2022-10-22T21:45:21.469Z,12
2022-10-22T21:48:09.599Z,12
2022-10-22T21:51:09.495Z,12
2022-10-22T21:54:09.559Z,12
2022-10-22T21:57:09.509Z,12.1
2022-10-22T22:00:11.040Z,12.1
2022-10-22T22:03:09.506Z,11.9
2022-10-22T22:06:09.608Z,11.9
2022-10-22T22:09:10.332Z,11.9
2022-10-22T22:12:09.574Z,11.9
2022-10-22T22:15:09.614Z,11.8
2022-10-22T22:18:09.622Z,11.7
2022-10-22T22:21:09.497Z,11.5
2022-10-22T22:24:09.501Z,11.2
2022-10-22T22:27:09.688Z,10.8
2022-10-22T22:30:09.547Z,10.6
2022-10-22T22:33:09.519Z,10.3
2022-10-22T22:36:09.524Z,10.1
2022-10-22T22:39:09.487Z,9.9
2022-10-22T22:42:09.502Z,9.8
2022-10-22T22:45:09.542Z,9.6
2022-10-22T22:48:09.482Z,9.6
2022-10-22T22:51:09.536Z,9.5
2022-10-22T22:54:09.535Z,9.6
2022-10-22T22:57:09.585Z,9.5
2022-10-22T23:00:09.518Z,9.5
2022-10-22T23:03:09.524Z,9.6
2022-10-22T23:06:09.481Z,9.4
2022-10-22T23:09:10.321Z,9.4
2022-10-22T23:12:09.751Z,9.4
2022-10-22T23:15:09.462Z,9.4
2022-10-22T23:18:09.555Z,9.5
2022-10-22T23:21:09.497Z,9.4
2022-10-22T23:24:09.511Z,9.4
2022-10-22T23:27:09.523Z,9.3
2022-10-22T23:30:09.532Z,9.1
2022-10-22T23:33:09.488Z,9
2022-10-22T23:36:09.507Z,8.9
2022-10-22T23:39:09.600Z,8.9
2022-10-22T23:42:09.528Z,8.9
2022-10-22T23:45:09.617Z,8.8
2022-10-22T23:48:09.550Z,8.7
2022-10-22T23:51:09.466Z,8.6
2022-10-22T23:54:09.484Z,8.6
2022-10-22T23:57:09.535Z,8.6
